Time;durP1;ratioP1;P1;durP2;ratioP2;P2;SDS_P1;SDS_P2;PMS_P1;PMS_P2;Temp;Humidity;BMP_temperature;BMP_pressure;BME280_temperature;BME280_humidity;BME280_pressure;Samples;Min_cycle;Max_cycle;Signal;HPM_P1;HPM_P2
2023/05/08 00:01:25;;;;;;;;;;;14.00;99.90;;;;;;5048600;28;19929;-63
2023/05/08 00:03:57;;;;;;;;;;;14.00;99.90;;;;;;5045340;28;19986;-63
2023/05/08 00:06:29;;;;;;;;;;;14.00;99.90;;;;;;5038684;28;19925;-63
2023/05/08 00:09:00;;;;;;;;;;;14.00;99.90;;;;;;5042321;28;19925;-63
2023/05/08 00:11:27;;;;;;;;;;;14.00;99.90;;;;;;5042522;28;19936;-63
2023/05/08 00:13:59;;;;;;;;;;;13.90;99.90;;;;;;5041482;28;19925;-62
2023/05/08 00:16:30;;;;;;;;;;;13.90;99.90;;;;;;5046881;28;19971;-63
2023/05/08 00:19:02;;;;;;;;;;;13.90;99.90;;;;;;5034670;28;19925;-63
2023/05/08 00:21:34;;;;;;;;;;;13.90;99.90;;;;;;5051268;28;19925;-64
2023/05/08 00:24:01;;;;;;;;;;;13.80;99.90;;;;;;5039578;28;19933;-63
2023/05/08 00:26:32;;;;;;;;;;;13.80;99.90;;;;;;5044229;28;19925;-63
2023/05/08 00:29:04;;;;;;;;;;;13.70;99.90;;;;;;5038972;28;19983;-63
2023/05/08 00:31:36;;;;;;;;;;;13.70;99.90;;;;;;5041769;28;20349;-63
2023/05/08 00:34:08;;;;;;;;;;;13.80;99.90;;;;;;5026465;28;20208;-63
2023/05/08 00:36:39;;;;;;;;;;;13.80;99.90;;;;;;5041791;28;19925;-63
2023/05/08 00:39:11;;;;;;;;;;;13.80;99.90;;;;;;5045434;28;19936;-63
2023/05/08 00:41:43;;;;;;;;;;;13.80;99.90;;;;;;5045968;28;19933;-63
2023/05/08 00:44:15;;;;;;;;;;;13.80;99.90;;;;;;5031241;28;19948;-63
2023/05/08 00:46:46;;;;;;;;;;;13.80;99.90;;;;;;5037242;28;19925;-63
2023/05/08 00:49:18;;;;;;;;;;;13.80;99.90;;;;;;5024509;28;19940;-63
2023/05/08 00:51:51;;;;;;;;;;;13.80;99.90;;;;;;5019037;28;19932;-64
2023/05/08 00:54:23;;;;;;;;;;;13.80;99.90;;;;;;5030135;28;19936;-63
2023/05/08 00:56:54;;;;;;;;;;;13.80;99.90;;;;;;5039374;28;20024;-63
2023/05/08 00:59:26;;;;;;;;;;;13.80;99.90;;;;;;5044496;28;20459;-63
2023/05/08 01:01:59;;;;;;;;;;;13.80;99.90;;;;;;5025406;28;19933;-63
2023/05/08 01:04:32;;;;;;;;;;;13.80;99.90;;;;;;5043916;28;19925;-63
2023/05/08 01:07:04;;;;;;;;;;;13.80;99.90;;;;;;5030211;28;19925;-63
2023/05/08 01:09:36;;;;;;;;;;;13.80;99.90;;;;;;5021865;28;19925;-63
2023/05/08 01:12:15;;;;;;;;;;;13.80;99.90;;;;;;5042973;28;19929;-63
2023/05/08 01:14:41;;;;;;;;;;;13.90;99.90;;;;;;5021860;28;19932;-64
2023/05/08 01:17:35;;;;;;;;;;;13.80;99.90;;;;;;5027608;28;19932;-63
2023/05/08 01:20:31;;;;;;;;;;;13.80;99.90;;;;;;5026959;28;20429;-63
2023/05/08 01:23:21;;;;;;;;;;;13.80;99.90;;;;;;5034153;28;19929;-63
2023/05/08 01:26:07;;;;;;;;;;;13.80;99.90;;;;;;5047736;28;19933;-63
2023/05/08 01:28:51;;;;;;;;;;;13.80;99.90;;;;;;5029711;28;19952;-63
2023/05/08 01:31:28;;;;;;;;;;;13.90;99.90;;;;;;5050065;28;20422;-63
2023/05/08 01:34:20;;;;;;;;;;;13.90;99.90;;;;;;5047193;28;19925;-63
2023/05/08 01:37:07;;;;;;;;;;;13.90;99.90;;;;;;5031477;28;19936;-63
2023/05/08 01:39:57;;;;;;;;;;;13.90;99.90;;;;;;5027642;28;19940;-63
2023/05/08 01:42:37;;;;;;;;;;;13.90;99.90;;;;;;5039244;28;19940;-63
2023/05/08 01:45:15;;;;;;;;;;;13.90;99.90;;;;;;5024093;28;19925;-63
2023/05/08 01:47:50;;;;;;;;;;;14.00;99.90;;;;;;5041744;28;19925;-63
2023/05/08 01:50:25;;;;;;;;;;;14.00;99.90;;;;;;5026038;28;19925;-63
2023/05/08 01:53:02;;;;;;;;;;;14.00;99.90;;;;;;5036071;28;19933;-63
2023/05/08 01:55:35;;;;;;;;;;;13.90;99.90;;;;;;5036816;28;20419;-63
2023/05/08 01:58:08;;;;;;;;;;;13.90;99.90;;;;;;5029409;28;19936;-63
2023/05/08 02:00:40;;;;;;;;;;;13.90;99.90;;;;;;5041985;28;20417;-63
2023/05/08 02:03:13;;;;;;;;;;;13.90;99.90;;;;;;5027300;28;19949;-63
2023/05/08 02:05:47;;;;;;;;;;;13.90;99.90;;;;;;5024593;28;19929;-63
2023/05/08 02:08:14;;;;;;;;;;;13.90;99.90;;;;;;5046216;28;20480;-63
2023/05/08 02:10:47;;;;;;;;;;;13.90;99.90;;;;;;5024942;28;19925;-63
2023/05/08 02:13:20;;;;;;;;;;;13.90;99.90;;;;;;5033164;28;19924;-63
2023/05/08 02:15:53;;;;;;;;;;;13.90;99.90;;;;;;5049057;28;20198;-64
2023/05/08 02:18:26;;;;;;;;;;;13.90;99.90;;;;;;5051083;28;19932;-63
2023/05/08 02:20:59;;;;;;;;;;;13.90;99.90;;;;;;5038959;28;19925;-63
2023/05/08 02:23:32;;;;;;;;;;;13.90;99.90;;;;;;5039192;28;19929;-63
2023/05/08 02:26:04;;;;;;;;;;;13.90;99.90;;;;;;5045358;28;19929;-63
2023/05/08 02:28:35;;;;;;;;;;;13.90;99.90;;;;;;5042629;28;19925;-63
2023/05/08 02:31:04;;;;;;;;;;;13.90;99.90;;;;;;5025102;28;20360;-63
2023/05/08 02:33:37;;;;;;;;;;;13.90;99.90;;;;;;5039021;28;20443;-63
2023/05/08 02:36:10;;;;;;;;;;;13.90;99.90;;;;;;5043349;28;19925;-63
2023/05/08 02:38:47;;;;;;;;;;;13.80;99.90;;;;;;5036737;28;19948;-63
2023/05/08 02:41:22;;;;;;;;;;;13.80;99.90;;;;;;5035686;28;20393;-63
2023/05/08 02:43:54;;;;;;;;;;;13.80;99.90;;;;;;5030969;28;20512;-63
2023/05/08 02:46:40;;;;;;;;;;;13.70;99.90;;;;;;5036998;28;20020;-63
2023/05/08 02:49:19;;;;;;;;;;;13.70;99.90;;;;;;5027988;28;19924;-63
2023/05/08 02:52:17;;;;;;;;;;;13.70;99.90;;;;;;5027652;28;19925;-63
2023/05/08 02:55:07;;;;;;;;;;;13.70;99.90;;;;;;4996821;28;19932;-63
2023/05/08 02:57:45;;;;;;;;;;;13.70;99.90;;;;;;5021658;28;19929;-63
2023/05/08 03:00:19;;;;;;;;;;;13.70;99.90;;;;;;5036218;28;19932;-63
2023/05/08 03:02:53;;;;;;;;;;;13.70;99.90;;;;;;5016559;28;19925;-63
2023/05/08 03:05:29;;;;;;;;;;;13.70;99.90;;;;;;5026178;28;20378;-63
2023/05/08 03:08:06;;;;;;;;;;;13.60;99.90;;;;;;5033826;28;19960;-63
2023/05/08 03:10:39;;;;;;;;;;;13.60;99.90;;;;;;5034161;28;20459;-63
2023/05/08 03:13:11;;;;;;;;;;;13.60;99.90;;;;;;5044851;28;19971;-63
2023/05/08 03:15:57;;;;;;;;;;;13.60;99.90;;;;;;5035521;28;19925;-63
2023/05/08 03:18:40;;;;;;;;;;;13.50;99.90;;;;;;5034627;28;19964;-63
2023/05/08 03:21:16;;;;;;;;;;;13.50;99.90;;;;;;5045440;28;19940;-63
2023/05/08 03:23:50;;;;;;;;;;;13.60;99.90;;;;;;5043815;28;19925;-63
2023/05/08 03:26:21;;;;;;;;;;;13.60;99.90;;;;;;5029989;28;19931;-63
2023/05/08 03:28:52;;;;;;;;;;;13.60;99.90;;;;;;5042902;28;19929;-63
2023/05/08 03:31:30;;;;;;;;;;;13.60;99.90;;;;;;5032281;28;19952;-63
2023/05/08 03:34:03;;;;;;;;;;;13.60;99.90;;;;;;5026236;28;19925;-63
2023/05/08 03:36:34;;;;;;;;;;;13.60;99.90;;;;;;5035420;28;19933;-63
2023/05/08 03:39:02;;;;;;;;;;;13.50;99.90;;;;;;5035868;28;19980;-63
2023/05/08 03:41:33;;;;;;;;;;;13.50;99.90;;;;;;5037622;28;19933;-64
2023/05/08 03:44:06;;;;;;;;;;;13.50;99.90;;;;;;5034580;28;19925;-63
2023/05/08 03:46:39;;;;;;;;;;;13.50;99.90;;;;;;5028724;28;19931;-63
2023/05/08 03:49:11;;;;;;;;;;;13.50;99.90;;;;;;5034989;28;19933;-62
2023/05/08 03:51:44;;;;;;;;;;;13.50;99.90;;;;;;5026427;28;20327;-63
2023/05/08 03:54:13;;;;;;;;;;;13.50;99.90;;;;;;5025403;28;19925;-63
2023/05/08 03:56:46;;;;;;;;;;;13.60;99.90;;;;;;5025302;28;19932;-63
2023/05/08 03:59:21;;;;;;;;;;;13.60;99.90;;;;;;5030497;28;19929;-63
2023/05/08 04:01:55;;;;;;;;;;;13.60;99.90;;;;;;5044157;28;20408;-63
2023/05/08 04:04:32;;;;;;;;;;;13.50;99.90;;;;;;5017885;28;19935;-64
2023/05/08 04:07:04;;;;;;;;;;;13.50;99.90;;;;;;5031485;28;19929;-63
2023/05/08 04:09:58;;;;;;;;;;;13.50;99.90;;;;;;5031515;28;19967;-64
2023/05/08 04:12:44;;;;;;;;;;;13.50;99.90;;;;;;5031278;28;19932;-63
2023/05/08 04:15:17;;;;;;;;;;;13.50;99.90;;;;;;5027249;28;20001;-63
2023/05/08 04:17:46;;;;;;;;;;;13.50;99.90;;;;;;5030405;28;19972;-63
2023/05/08 04:20:19;;;;;;;;;;;13.50;99.90;;;;;;5028698;28;19935;-63
2023/05/08 04:22:52;;;;;;;;;;;13.50;99.90;;;;;;5047994;28;19925;-64
2023/05/08 04:25:24;;;;;;;;;;;13.50;99.90;;;;;;5016204;28;20366;-63
2023/05/08 04:27:57;;;;;;;;;;;13.50;99.90;;;;;;5034335;28;19932;-64
2023/05/08 04:30:30;;;;;;;;;;;13.50;99.90;;;;;;5028369;28;19994;-63
2023/05/08 04:33:06;;;;;;;;;;;13.50;99.90;;;;;;5026516;28;20008;-62
2023/05/08 04:35:38;;;;;;;;;;;13.50;99.90;;;;;;5041375;28;19924;-63
2023/05/08 04:38:09;;;;;;;;;;;13.60;99.90;;;;;;5028968;28;20475;-64
2023/05/08 04:40:41;;;;;;;;;;;13.70;99.90;;;;;;5025866;28;19929;-64
2023/05/08 04:43:13;;;;;;;;;;;13.60;99.90;;;;;;5025164;28;19937;-64
2023/05/08 04:45:45;;;;;;;;;;;13.70;99.90;;;;;;5020140;28;19929;-67
2023/05/08 04:48:17;;;;;;;;;;;13.70;99.90;;;;;;5031473;28;19957;-62
2023/05/08 04:50:49;;;;;;;;;;;13.70;99.90;;;;;;5037159;28;19925;-62
2023/05/08 04:53:21;;;;;;;;;;;13.70;99.90;;;;;;5034366;28;19924;-62
2023/05/08 04:55:53;;;;;;;;;;;13.70;99.90;;;;;;5034352;28;19925;-62
2023/05/08 04:58:19;;;;;;;;;;;13.70;99.90;;;;;;5046845;28;19939;-63
2023/05/08 05:00:46;;;;;;;;;;;13.70;99.90;;;;;;5034743;28;20488;-62
2023/05/08 05:03:18;;;;;;;;;;;13.70;99.90;;;;;;5028222;28;19952;-62
2023/05/08 05:05:55;;;;;;;;;;;13.70;99.90;;;;;;5043480;28;19943;-62
2023/05/08 05:08:27;;;;;;;;;;;13.70;99.90;;;;;;5045646;28;19995;-62
2023/05/08 05:11:00;;;;;;;;;;;13.70;99.90;;;;;;5039992;28;19951;-62
2023/05/08 05:13:31;;;;;;;;;;;13.70;99.90;;;;;;5021046;28;20027;-62
2023/05/08 05:16:03;;;;;;;;;;;13.70;99.90;;;;;;5033291;28;19979;-62
2023/05/08 05:18:35;;;;;;;;;;;13.70;99.90;;;;;;5021719;28;19929;-63
2023/05/08 05:21:07;;;;;;;;;;;13.60;99.90;;;;;;5039156;28;19956;-63
2023/05/08 05:23:34;;;;;;;;;;;13.60;99.90;;;;;;5039890;28;19924;-62
2023/05/08 05:26:00;;;;;;;;;;;13.60;99.90;;;;;;5041113;28;20292;-63
2023/05/08 05:28:28;;;;;;;;;;;13.60;99.90;;;;;;5035235;28;19924;-63
2023/05/08 05:31:00;;;;;;;;;;;13.60;99.90;;;;;;5041230;28;19933;-62
2023/05/08 05:33:32;;;;;;;;;;;13.60;99.90;;;;;;5030385;28;20371;-63
2023/05/08 05:36:04;;;;;;;;;;;13.50;99.90;;;;;;5034299;28;19924;-63
2023/05/08 05:38:36;;;;;;;;;;;13.60;99.90;;;;;;5037511;28;19975;-62
2023/05/08 05:41:08;;;;;;;;;;;13.50;99.90;;;;;;5030172;28;20035;-63
2023/05/08 05:43:40;;;;;;;;;;;13.50;99.90;;;;;;5019348;28;19951;-62
2023/05/08 05:46:12;;;;;;;;;;;13.50;99.90;;;;;;5044549;28;19952;-63
2023/05/08 05:48:45;;;;;;;;;;;13.50;99.90;;;;;;5039681;28;20344;-62
2023/05/08 05:51:16;;;;;;;;;;;13.50;99.90;;;;;;5023062;28;20409;-62
2023/05/08 05:53:48;;;;;;;;;;;13.50;99.90;;;;;;5041050;28;19925;-63
2023/05/08 05:56:15;;;;;;;;;;;13.50;99.90;;;;;;5034258;28;19924;-63
2023/05/08 05:58:46;;;;;;;;;;;13.50;99.90;;;;;;5014182;28;19955;-62
2023/05/08 06:01:18;;;;;;;;;;;13.50;99.90;;;;;;5030211;28;19925;-62
2023/05/08 06:03:50;;;;;;;;;;;13.50;99.90;;;;;;5028292;28;19983;-62
2023/05/08 06:06:22;;;;;;;;;;;13.50;99.90;;;;;;5045642;28;19931;-62
2023/05/08 06:08:54;;;;;;;;;;;13.50;99.90;;;;;;5034149;28;19931;-63
2023/05/08 06:11:22;;;;;;;;;;;13.50;99.90;;;;;;5029830;28;19959;-63
2023/05/08 06:13:54;;;;;;;;;;;13.50;99.90;;;;;;5033505;28;19925;-63
2023/05/08 06:16:26;;;;;;;;;;;13.60;99.90;;;;;;5031948;28;19925;-63
2023/05/08 06:18:53;;;;;;;;;;;13.60;99.90;;;;;;5034067;28;19947;-62
2023/05/08 06:21:20;;;;;;;;;;;13.60;99.90;;;;;;5028617;28;19933;-62
2023/05/08 06:23:52;;;;;;;;;;;13.60;99.90;;;;;;5030424;28;20610;-62
2023/05/08 06:26:25;;;;;;;;;;;13.60;99.90;;;;;;5048675;28;20016;-62
2023/05/08 06:28:56;;;;;;;;;;;13.70;99.90;;;;;;5043934;28;19932;-63
2023/05/08 06:31:28;;;;;;;;;;;13.70;99.90;;;;;;5047249;28;19933;-63
2023/05/08 06:34:00;;;;;;;;;;;13.60;99.90;;;;;;5032464;28;19939;-62
2023/05/08 06:36:27;;;;;;;;;;;13.70;99.90;;;;;;5046226;28;19979;-62
2023/05/08 06:38:59;;;;;;;;;;;13.70;99.90;;;;;;5050210;28;19935;-62
2023/05/08 06:41:31;;;;;;;;;;;13.70;99.90;;;;;;5041148;28;19929;-63
2023/05/08 06:44:03;;;;;;;;;;;13.70;99.90;;;;;;5041159;28;19936;-63
2023/05/08 06:46:31;;;;;;;;;;;13.70;99.90;;;;;;5051533;28;20400;-63
2023/05/08 06:49:03;;;;;;;;;;;13.70;99.90;;;;;;5025316;28;19936;-63
2023/05/08 06:51:30;;;;;;;;;;;13.70;99.90;;;;;;5035217;28;19936;-63
2023/05/08 06:54:04;;;;;;;;;;;13.70;99.90;;;;;;5047046;28;19925;-63
2023/05/08 06:56:36;;;;;;;;;;;13.80;99.90;;;;;;5047589;28;19925;-63
2023/05/08 06:59:07;;;;;;;;;;;13.80;99.90;;;;;;5049357;28;19929;-63
2023/05/08 07:01:40;;;;;;;;;;;13.80;99.90;;;;;;5046942;28;19929;-62
2023/05/08 07:04:12;;;;;;;;;;;13.80;99.90;;;;;;5047213;28;19959;-62
2023/05/08 07:06:39;;;;;;;;;;;13.80;99.90;;;;;;5028261;28;19948;-63
2023/05/08 07:09:11;;;;;;;;;;;13.80;99.90;;;;;;5046320;28;20356;-63
2023/05/08 07:11:43;;;;;;;;;;;13.80;99.90;;;;;;5040666;28;20424;-62
2023/05/08 07:14:15;;;;;;;;;;;13.80;99.90;;;;;;5044832;28;20370;-62
2023/05/08 07:16:42;;;;;;;;;;;13.90;99.90;;;;;;5029850;28;19940;-62
2023/05/08 07:19:08;;;;;;;;;;;13.90;99.90;;;;;;5047932;28;19933;-62
2023/05/08 07:21:40;;;;;;;;;;;13.90;99.90;;;;;;5034420;28;19929;-63
2023/05/08 07:24:12;;;;;;;;;;;14.00;99.90;;;;;;5033461;28;19925;-63
2023/05/08 07:26:44;;;;;;;;;;;13.90;99.90;;;;;;5027780;28;19925;-62
2023/05/08 07:29:15;;;;;;;;;;;13.90;99.90;;;;;;5044996;28;19968;-63
2023/05/08 07:31:47;;;;;;;;;;;14.00;99.90;;;;;;5034293;28;19995;-62
2023/05/08 07:34:19;;;;;;;;;;;13.90;99.90;;;;;;5044727;28;19931;-62
2023/05/08 07:36:51;;;;;;;;;;;13.90;99.90;;;;;;5042965;28;20558;-62
2023/05/08 07:39:23;;;;;;;;;;;14.00;99.90;;;;;;5043573;28;19925;-62
2023/05/08 07:41:54;;;;;;;;;;;13.90;99.90;;;;;;5044652;28;20412;-63
2023/05/08 07:44:26;;;;;;;;;;;13.90;99.90;;;;;;5045476;28;20388;-63
2023/05/08 07:46:58;;;;;;;;;;;13.90;99.90;;;;;;5043766;28;19948;-62
2023/05/08 07:49:31;;;;;;;;;;;14.00;99.90;;;;;;5037661;28;20397;-63
2023/05/08 07:52:03;;;;;;;;;;;14.00;99.90;;;;;;5026897;28;19929;-62
2023/05/08 07:54:35;;;;;;;;;;;14.00;99.90;;;;;;5038163;28;19925;-63
2023/05/08 07:57:01;;;;;;;;;;;14.00;99.90;;;;;;5024858;28;19980;-63
2023/05/08 07:59:33;;;;;;;;;;;14.10;99.90;;;;;;5044956;28;19929;-62
2023/05/08 08:02:00;;;;;;;;;;;14.10;99.90;;;;;;5027286;28;20392;-63
2023/05/08 08:04:32;;;;;;;;;;;14.10;99.90;;;;;;5048988;28;20043;-63
2023/05/08 08:06:58;;;;;;;;;;;14.10;99.90;;;;;;5045415;28;19931;-63
2023/05/08 08:09:32;;;;;;;;;;;14.10;99.90;;;;;;5031784;28;19929;-62
2023/05/08 08:12:04;;;;;;;;;;;14.10;99.90;;;;;;5031173;28;19936;-62
2023/05/08 08:14:36;;;;;;;;;;;14.20;99.90;;;;;;5042510;28;19929;-63
2023/05/08 08:17:07;;;;;;;;;;;14.10;99.90;;;;;;5043803;28;20004;-62
2023/05/08 08:19:40;;;;;;;;;;;14.10;99.90;;;;;;5039188;28;20128;-62
2023/05/08 08:22:12;;;;;;;;;;;14.20;99.90;;;;;;5037943;28;19925;-62
2023/05/08 08:24:43;;;;;;;;;;;14.20;99.90;;;;;;5024245;28;20063;-62
2023/05/08 08:27:15;;;;;;;;;;;14.20;99.90;;;;;;5042184;28;19929;-62
2023/05/08 08:29:47;;;;;;;;;;;14.20;99.90;;;;;;5048333;28;19978;-62
2023/05/08 08:32:18;;;;;;;;;;;14.20;99.90;;;;;;5049100;28;20372;-62
2023/05/08 08:34:50;;;;;;;;;;;14.20;99.90;;;;;;5034526;28;19933;-62
2023/05/08 08:37:23;;;;;;;;;;;14.20;99.90;;;;;;5044063;28;19971;-62
2023/05/08 08:39:54;;;;;;;;;;;14.20;99.90;;;;;;5040727;28;19947;-62
2023/05/08 08:42:26;;;;;;;;;;;14.30;99.90;;;;;;5038882;28;20024;-62
2023/05/08 08:44:59;;;;;;;;;;;14.30;99.90;;;;;;5037460;28;20416;-62
2023/05/08 08:47:36;;;;;;;;;;;14.30;99.90;;;;;;5042421;28;19967;-62
2023/05/08 08:50:09;;;;;;;;;;;14.30;99.90;;;;;;5034829;28;19956;-62
2023/05/08 08:52:45;;;;;;;;;;;14.30;99.90;;;;;;5033162;28;19924;-62
2023/05/08 08:55:18;;;;;;;;;;;14.40;99.90;;;;;;5045801;28;19932;-62
2023/05/08 08:58:06;;;;;;;;;;;14.40;99.90;;;;;;5048298;28;19932;-62
2023/05/08 09:00:38;;;;;;;;;;;14.40;99.90;;;;;;5048226;28;20024;-62
2023/05/08 09:03:10;;;;;;;;;;;14.50;99.90;;;;;;5043089;28;19983;-66
2023/05/08 09:05:44;;;;;;;;;;;14.50;99.90;;;;;;5043526;28;19933;-62
2023/05/08 09:08:11;;;;;;;;;;;14.60;99.90;;;;;;5041984;28;19939;-62
2023/05/08 09:10:38;;;;;;;;;;;14.60;99.90;;;;;;5039308;28;19979;-62
2023/05/08 09:13:10;;;;;;;;;;;14.60;99.90;;;;;;5026206;28;20018;-62
2023/05/08 09:15:42;;;;;;;;;;;14.60;99.90;;;;;;5049419;28;19925;-62
2023/05/08 09:18:14;;;;;;;;;;;14.60;99.90;;;;;;5046733;28;19940;-62
2023/05/08 09:20:46;;;;;;;;;;;14.60;99.90;;;;;;5048040;28;20416;-62
2023/05/08 09:23:19;;;;;;;;;;;14.60;99.90;;;;;;5043532;28;19932;-62
2023/05/08 09:25:50;;;;;;;;;;;14.60;99.90;;;;;;5043100;28;19939;-62
2023/05/08 09:28:25;;;;;;;;;;;14.70;99.90;;;;;;5039658;28;19925;-62
2023/05/08 09:30:58;;;;;;;;;;;14.70;99.90;;;;;;5041822;28;19925;-62
2023/05/08 09:33:30;;;;;;;;;;;14.70;99.90;;;;;;5037031;28;19935;-62
2023/05/08 09:36:01;;;;;;;;;;;14.80;99.90;;;;;;5051926;28;19928;-62
2023/05/08 09:38:37;;;;;;;;;;;14.90;99.90;;;;;;5024880;28;19965;-61
2023/05/08 09:41:05;;;;;;;;;;;15.00;99.90;;;;;;5044954;28;20433;-62
2023/05/08 09:43:37;;;;;;;;;;;15.00;99.90;;;;;;5030755;28;20380;-60
2023/05/08 09:46:15;;;;;;;;;;;15.00;99.90;;;;;;5047281;28;20312;-62
2023/05/08 09:48:47;;;;;;;;;;;15.00;99.90;;;;;;5033037;28;19932;-62
2023/05/08 09:51:19;;;;;;;;;;;15.10;99.90;;;;;;5045698;28;19925;-62
2023/05/08 09:53:51;;;;;;;;;;;15.10;99.90;;;;;;5050456;28;20443;-62
2023/05/08 09:56:32;;;;;;;;;;;15.20;99.90;;;;;;5050723;28;20258;-62
2023/05/08 09:59:01;;;;;;;;;;;15.20;99.90;;;;;;5044286;28;20320;-62
2023/05/08 10:01:34;;;;;;;;;;;15.30;99.90;;;;;;5052652;28;20023;-62
2023/05/08 10:04:05;;;;;;;;;;;15.40;99.90;;;;;;5030677;28;19955;-62
2023/05/08 10:06:37;;;;;;;;;;;15.40;99.90;;;;;;5047160;28;19932;-62
2023/05/08 10:09:11;;;;;;;;;;;15.30;99.90;;;;;;5052250;28;19929;-62
2023/05/08 10:11:54;;;;;;;;;;;15.40;99.90;;;;;;5033761;28;19936;-62
2023/05/08 10:14:25;;;;;;;;;;;15.50;99.90;;;;;;5049805;28;20417;-62
2023/05/08 10:16:58;;;;;;;;;;;15.60;99.90;;;;;;5049328;28;19932;-62
2023/05/08 10:19:27;;;;;;;;;;;15.60;99.90;;;;;;5051000;28;19929;-62
2023/05/08 10:22:00;;;;;;;;;;;15.60;99.90;;;;;;5037224;28;19932;-62
2023/05/08 10:24:32;;;;;;;;;;;15.80;99.90;;;;;;5030051;28;19929;-62
2023/05/08 10:27:16;;;;;;;;;;;15.90;99.90;;;;;;5042943;28;19984;-61
2023/05/08 10:29:52;;;;;;;;;;;16.00;99.90;;;;;;5032907;28;20332;-62
2023/05/08 10:32:24;;;;;;;;;;;16.00;99.90;;;;;;5049197;28;19929;-62
2023/05/08 10:34:58;;;;;;;;;;;16.10;99.90;;;;;;5044440;28;20016;-62
2023/05/08 10:37:32;;;;;;;;;;;16.10;99.90;;;;;;5046888;28;19944;-62
2023/05/08 10:40:04;;;;;;;;;;;16.10;99.90;;;;;;5048535;28;19978;-62
2023/05/08 10:42:36;;;;;;;;;;;16.10;99.90;;;;;;5031258;28;19925;-62
2023/05/08 10:45:04;;;;;;;;;;;16.10;99.90;;;;;;5050656;28;19925;-62
2023/05/08 10:47:54;;;;;;;;;;;16.10;99.90;;;;;;5035920;28;19925;-62
2023/05/08 10:50:48;;;;;;;;;;;16.10;99.90;;;;;;5038673;28;19925;-62
2023/05/08 10:53:40;;;;;;;;;;;16.00;99.90;;;;;;5028175;28;19925;-62
2023/05/08 10:56:12;;;;;;;;;;;16.00;99.90;;;;;;5042801;28;19928;-62
2023/05/08 10:58:43;;;;;;;;;;;15.90;99.90;;;;;;5032255;28;19990;-62
2023/05/08 11:01:15;;;;;;;;;;;15.90;99.90;;;;;;5047481;28;19936;-62
2023/05/08 11:03:49;;;;;;;;;;;15.90;99.90;;;;;;5045382;28;19932;-62
2023/05/08 11:06:41;;;;;;;;;;;15.90;99.90;;;;;;5045770;28;19979;-62
2023/05/08 11:09:20;;;;;;;;;;;15.90;99.90;;;;;;5027270;28;19960;-62
2023/05/08 11:12:18;;;;;;;;;;;15.90;99.90;;;;;;5043791;28;19929;-62
2023/05/08 11:14:56;;;;;;;;;;;15.80;99.90;;;;;;5018729;28;20377;-62
2023/05/08 11:17:28;;;;;;;;;;;15.80;99.90;;;;;;5038209;28;20294;-62
2023/05/08 11:20:02;;;;;;;;;;;15.80;99.90;;;;;;5039141;28;19925;-62
2023/05/08 11:22:34;;;;;;;;;;;15.80;99.90;;;;;;5044657;28;19925;-62
2023/05/08 11:25:07;;;;;;;;;;;15.80;99.90;;;;;;5044833;28;19978;-62
2023/05/08 11:27:46;;;;;;;;;;;15.80;99.90;;;;;;5050408;28;19928;-62
2023/05/08 11:30:34;;;;;;;;;;;15.70;99.90;;;;;;5046924;28;19931;-62
2023/05/08 11:33:09;;;;;;;;;;;15.80;99.90;;;;;;5049629;28;19928;-62
2023/05/08 11:35:56;;;;;;;;;;;15.80;99.90;;;;;;5039406;28;19929;-62
2023/05/08 11:38:34;;;;;;;;;;;15.80;99.90;;;;;;5043709;28;20398;-62
2023/05/08 11:41:08;;;;;;;;;;;15.90;99.90;;;;;;5041114;28;20348;-62
2023/05/08 11:43:58;;;;;;;;;;;15.90;99.90;;;;;;5041610;28;19940;-62
2023/05/08 11:46:40;;;;;;;;;;;16.10;99.90;;;;;;5043436;28;19956;-62
2023/05/08 11:49:13;;;;;;;;;;;16.10;99.90;;;;;;5041785;28;19928;-63
2023/05/08 11:51:43;;;;;;;;;;;16.20;99.90;;;;;;5047779;28;20408;-63
2023/05/08 11:54:17;;;;;;;;;;;16.30;99.90;;;;;;5033314;28;19951;-63
2023/05/08 11:56:49;;;;;;;;;;;16.20;99.90;;;;;;5030671;28;19925;-62
2023/05/08 11:59:22;;;;;;;;;;;16.20;99.90;;;;;;5045756;28;19925;-63
2023/05/08 12:01:53;;;;;;;;;;;16.20;99.90;;;;;;5033147;28;19929;-63
2023/05/08 12:04:25;;;;;;;;;;;16.20;99.90;;;;;;5027069;28;19971;-63
2023/05/08 12:06:57;;;;;;;;;;;16.20;99.90;;;;;;5040415;28;19925;-63
2023/05/08 12:09:29;;;;;;;;;;;16.30;99.90;;;;;;5042787;28;20389;-62
2023/05/08 12:12:01;;;;;;;;;;;16.30;99.90;;;;;;5047222;28;19975;-63
2023/05/08 12:14:33;;;;;;;;;;;16.30;99.90;;;;;;5045914;28;19943;-63
2023/05/08 12:17:05;;;;;;;;;;;16.30;99.90;;;;;;5047608;28;19990;-62
2023/05/08 12:19:36;;;;;;;;;;;16.20;99.90;;;;;;5044999;28;20671;-63
2023/05/08 12:22:08;;;;;;;;;;;16.20;99.90;;;;;;5047015;28;19953;-63
2023/05/08 12:24:40;;;;;;;;;;;16.20;99.90;;;;;;5039773;28;19925;-62
2023/05/08 12:27:12;;;;;;;;;;;16.20;99.90;;;;;;5044767;28;19940;-63
2023/05/08 12:29:44;;;;;;;;;;;16.20;99.90;;;;;;5038839;28;19956;-63
2023/05/08 12:32:16;;;;;;;;;;;16.20;99.90;;;;;;5041305;28;20527;-63
2023/05/08 12:34:43;;;;;;;;;;;16.20;99.90;;;;;;5041742;28;19929;-63
2023/05/08 12:37:09;;;;;;;;;;;16.20;99.90;;;;;;5044508;28;19935;-63
2023/05/08 12:39:36;;;;;;;;;;;16.20;99.90;;;;;;5048118;28;19933;-63
2023/05/08 12:42:08;;;;;;;;;;;16.10;99.90;;;;;;5042313;28;20551;-62
2023/05/08 12:44:39;;;;;;;;;;;16.10;99.90;;;;;;5044413;28;19925;-63
2023/05/08 12:47:11;;;;;;;;;;;16.10;99.90;;;;;;5048381;28;20204;-63
2023/05/08 12:49:43;;;;;;;;;;;16.10;99.90;;;;;;5028191;28;19929;-63
2023/05/08 12:52:16;;;;;;;;;;;16.10;99.90;;;;;;5032541;28;20008;-63
2023/05/08 12:54:48;;;;;;;;;;;16.00;99.90;;;;;;5036625;28;20345;-63
2023/05/08 12:57:21;;;;;;;;;;;15.90;99.90;;;;;;5048253;28;19999;-63
2023/05/08 13:00:01;;;;;;;;;;;15.90;99.90;;;;;;5046080;28;19984;-63
2023/05/08 13:02:33;;;;;;;;;;;15.90;99.90;;;;;;5044361;28;20290;-62
2023/05/08 13:05:05;;;;;;;;;;;15.90;99.90;;;;;;5025218;28;20056;-63
2023/05/08 13:07:36;;;;;;;;;;;15.80;99.90;;;;;;5026568;28;20664;-63
2023/05/08 13:10:08;;;;;;;;;;;15.80;99.90;;;;;;5044407;28;20412;-62
2023/05/08 13:12:40;;;;;;;;;;;15.70;99.90;;;;;;5048282;28;19932;-62
2023/05/08 13:15:11;;;;;;;;;;;15.70;99.90;;;;;;5044948;28;19963;-62
2023/05/08 13:17:38;;;;;;;;;;;15.60;99.90;;;;;;5050395;28;19932;-63
2023/05/08 13:20:10;;;;;;;;;;;15.60;99.90;;;;;;5031329;28;19925;-63
2023/05/08 13:22:42;;;;;;;;;;;15.70;99.90;;;;;;5040972;28;19936;-63
2023/05/08 13:25:13;;;;;;;;;;;15.70;99.90;;;;;;5041571;28;20020;-62
2023/05/08 13:27:45;;;;;;;;;;;15.60;99.90;;;;;;5034266;28;19944;-63
2023/05/08 13:30:12;;;;;;;;;;;15.60;99.90;;;;;;5017473;28;20546;-63
2023/05/08 13:32:39;;;;;;;;;;;15.60;99.90;;;;;;5049405;28;19975;-61
2023/05/08 13:35:06;;;;;;;;;;;15.70;99.90;;;;;;5049862;28;19971;-63
2023/05/08 13:37:33;;;;;;;;;;;15.60;99.90;;;;;;5034494;28;19929;-63
2023/05/08 13:40:05;;;;;;;;;;;15.60;99.90;;;;;;5044278;28;19929;-62
2023/05/08 13:42:37;;;;;;;;;;;15.60;99.90;;;;;;5040179;28;19995;-63
2023/05/08 13:45:14;;;;;;;;;;;15.60;99.90;;;;;;5035081;28;19940;-63
2023/05/08 13:47:47;;;;;;;;;;;15.60;99.90;;;;;;5032497;28;19936;-63
2023/05/08 13:50:20;;;;;;;;;;;15.60;99.90;;;;;;5047155;28;19936;-63
2023/05/08 13:52:52;;;;;;;;;;;15.60;99.90;;;;;;5049804;28;19929;-62
2023/05/08 13:55:24;;;;;;;;;;;15.60;99.90;;;;;;5029485;28;19964;-63
2023/05/08 13:57:56;;;;;;;;;;;15.60;99.90;;;;;;5048612;28;19929;-63
2023/05/08 14:00:28;;;;;;;;;;;15.50;99.90;;;;;;5047327;28;19929;-63
2023/05/08 14:03:00;;;;;;;;;;;15.40;99.90;;;;;;5037722;28;19988;-61
2023/05/08 14:05:33;;;;;;;;;;;15.30;99.90;;;;;;5048621;28;19936;-63
2023/05/08 14:08:04;;;;;;;;;;;15.30;99.90;;;;;;5042566;28;19971;-63
2023/05/08 14:10:36;;;;;;;;;;;15.30;99.90;;;;;;5043346;28;19925;-63
2023/05/08 14:13:02;;;;;;;;;;;15.30;99.90;;;;;;5043319;28;19933;-63
2023/05/08 14:15:36;;;;;;;;;;;15.30;99.90;;;;;;5037639;28;20427;-63
2023/05/08 14:18:07;;;;;;;;;;;15.30;99.90;;;;;;5046710;28;20004;-63
2023/05/08 14:20:39;;;;;;;;;;;15.30;99.90;;;;;;5045750;28;20416;-63
2023/05/08 14:23:11;;;;;;;;;;;15.30;99.90;;;;;;5049222;28;19991;-63
2023/05/08 14:25:43;;;;;;;;;;;15.30;99.90;;;;;;5048439;28;19987;-63
2023/05/08 14:28:15;;;;;;;;;;;15.30;99.90;;;;;;5046827;28;19925;-63
2023/05/08 14:30:48;;;;;;;;;;;15.30;99.90;;;;;;5041637;28;20016;-63
2023/05/08 14:33:16;;;;;;;;;;;15.30;99.90;;;;;;5032449;28;19933;-63
2023/05/08 14:35:47;;;;;;;;;;;15.30;99.90;;;;;;5047720;28;19988;-63
2023/05/08 14:38:15;;;;;;;;;;;15.30;99.90;;;;;;5043900;28;20021;-63
2023/05/08 14:40:41;;;;;;;;;;;15.30;99.90;;;;;;5049128;28;19941;-63
2023/05/08 14:43:08;;;;;;;;;;;15.40;99.90;;;;;;5045254;28;19940;-63
2023/05/08 14:45:40;;;;;;;;;;;15.40;99.90;;;;;;5034532;28;19935;-63
2023/05/08 14:48:11;;;;;;;;;;;15.40;99.90;;;;;;5046036;28;19929;-64
2023/05/08 14:50:44;;;;;;;;;;;15.40;99.90;;;;;;5029079;28;19979;-64